LGKOLGRP

Guest
Details From LGKO - KOS
To LGRP - DIAGORAS
Flight Number -
Tags generated
Created
Modified
Stats Distance 54 nm / 100 km
Max Altitude 1,400 ft / 427 m
Waypoints 3
Social Downloads 22
Likes 0
Share

Download

Looking for another format? Having issues loading an existing format? Contact us
Advertisement - Login to hide

Notes

Basic altitude profile: - Ascent Rate: 2500ft/min - Ascent Speed: 250kts - Cruise Altitude: 35000ft - Cruise Speed: 420kts - Descent Rate: 1500ft/min - Descent Speed: 250kts Options: - Use NATs: yes - Use PACOTS: yes - Use low airways: yes - Use high airways: yes

Route

LGKO BANRO LGRP

ID Type Via Altitude (ft/m) Position (lat/lon) Dist (leg/tot) Name
O LGKO APT - 0 / 0 36.79440 / 27.09076 - / 0 nm KOS
BANRO FIX - 1,400 / 427 36.49472 / 27.99528 47 / 47 nm
O LGRP APT - 0 / 0 36.40542 / 28.08619 6 / 54 nm DIAGORAS

Altitude Profile

Advertisement - Login to hide

LGKO

Details ICAO LGKO (KGS)
Name Kos
Region Greece
Timezone Europe/Athens (UTC+3.0)
Stats Elevation 412 ft / 126 m (AMSL)
Location 36.794600° 27.091100°
Runways 1
Magnetic Variation 5.047° E

METAR

LGKO 080620Z 14012KT 9999 SCT030 20/13 Q1010

Decode

TAF

TAF LGKO 080500Z 0806/0906 13012KT 9999 FEW020 TEMPO 0806/0810 13015G25KT BECMG 0818/0820 VRB05KT BECMG 0903/0905 36012KT

Decode

Departure Runways

ID Width Length Bearing (true/mag) Surface Threshold Overrun Markings Lighting
14 148 ft / 45 m 7,882 ft / 2,402 m 148.07° / 143.02° ASPHALT 0 ft / 0 m 0 ft / 0 m APP EDGE THRESHOLD MALSF
32 148 ft / 45 m 7,882 ft / 2,402 m 328.08° / 323.03° ASPHALT 0 ft / 0 m 0 ft / 0 m APP EDGE THRESHOLD MALSF

LGRP

Details ICAO LGRP (RHO)
Name Rhodos Diagoras
Region Greece
Timezone Europe/Athens (UTC+3.0)
Stats Elevation 17 ft / 5 m (AMSL)
Location 36.405400° 28.086200°
Runways 1
Magnetic Variation 5.101° E

METAR

LGRP 080620Z 08010KT 360V150 9999 FEW015 22/16 Q1011 WS ALL RWY NOSIG

Decode

TAF

TAF LGRP 080500Z 0806/0906 13015KT 9000 FEW015 TEMPO 0806/0815 13015G25KT BECMG 0903/0905 28010KT

Decode

Destination Runways

ID Width Length Bearing (true/mag) Surface Threshold Overrun Markings Lighting
06 148 ft / 45 m 10,825 ft / 3,300 m 69.98° / 64.88° ASPHALT 0 ft / 0 m 23 ft / 7 m PREC-APP EDGE THRESHOLD SALS
24 148 ft / 45 m 10,825 ft / 3,300 m 250.00° / 244.90° ASPHALT 0 ft / 0 m 20 ft / 6 m PREC-APP EDGE THRESHOLD ALSF-II

Approach Navaids

Runway Type Ident Frequency Range Bearing (true/mag) Slope Elevation
24 GS IRDS 110.30 MHz 10 nm / 19 km 249.99° / 244.89 ° 3.00° 17 ft / 5 m (AMSL)
24 LOC-ILS IRDS 110.30 MHz 18 nm / 33 km 249.99° / 244.89 ° - 17 ft / 5 m (AMSL)

Popular Alternatives